West Olive, Michigan
Current Conditions -  °F | °C
As of 4:53 AM on Sunday 26 Oct 2014 (Local Time) from KBIV Reporting Station
Clear Clear  
Wind Chill: 53°   Ceiling: Unl
Heat Index: 53°   Visibility: 10mi
Dew Point: 34°   Wind: 8mph
Humidity: 48%   Direction: 320°NW
Pressure: 29.94"   Gusts: NA
Location:  42.92°N, 86.15°W
Report Text: KBIV 260853Z AUTO 32007KT 10SM CLR 12/01 A2994 RMK AO2 SLP139 T01170011 51007
Loading
Personal Weather Stations






























Interactive Weather Map
Tropical Storm Tracking
New forecast layout! Learn more

10-Day Weather Forecast

Advertisements
Track Severe Weather on mobile